Aviation Digital Data Service (ADDS)

Output produced by METARs form (0340 UTC 14 December 2018)
found at http://aviationweather.gov/metar/data/
 
KARB 140253Z AUTO 04003KT 4SM BR BKN060 BKN080 OVC100 00/M01 A3018 RMK AO2 SLP227 T00001011 58004
KARB 140153Z AUTO 00000KT 4SM BR CLR M02/M03 A3019 RMK AO2 SLP235 T10171028
KARB 140053Z AUTO 00000KT 5SM BR FEW100 M01/M02 A3019 RMK AO2 SLP235 T10111022
KDTW 140253Z 05003KT 4SM HZ SCT100 BKN200 01/M03 A3020 RMK AO2 SLP232 T00111033 58003
KDTW 140153Z 00000KT 5SM HZ BKN220 02/M03 A3021 RMK AO2 SLP235 T00171033
KDTW 140053Z VRB03KT 5SM HZ BKN220 02/M03 A3021 RMK AO2 SLP236 T00171033
KDTW 140304Z 1403/1506 07005KT 4SM BR SCT045 OVC080 
     TEMPO 1404/1406 4SM -RA BR OVC025 
     FM140600 14005KT 4SM -RA BR OVC015 
     TEMPO 1410/1414 2SM -RA BR OVC007 
     FM141400 VRB03KT 4SM BR OVC015 
     FM142000 26005KT P6SM BKN025 OVC040 
     FM150100 33005KT P6SM SCT040 BKN250
       
KJXN 140335Z AUTO 10005KT 4SM BR BKN025 BKN030 OVC049 01/M01 A3013 RMK AO2 T00111006
KJXN 140256Z AUTO 10006KT 6SM BR OVC048 01/M01 A3014 RMK AO2 SLP217 T00111011 58005
KJXN 140156Z 09006KT 7SM BKN080 OVC095 01/M02 A3016 RMK AO2 SLP222 T00111022
KJXN 140056Z 14005KT 8SM BKN095 02/M03 A3017 RMK AO2 SLP228 T00171028
KJXN 140334Z 1404/1424 11004KT 4SM -RA BR OVC015 
     FM140500 14003KT 2SM RA BR OVC004 
     FM141600 VRB03KT 3SM BR BKN006 
     FM141800 34004KT P6SM SCT015
       
KLAN 140253Z 09003KT 5SM BR OVC080 M01/M02 A3016 RMK AO2 SLP224 T10111022 58004
KLAN 140153Z 10004KT 5SM BR CLR M03/M04 A3018 RMK AO2 SLP232 T10281044
KLAN 140053Z 10003KT 6SM BR CLR M02/M04 A3018 RMK AO2 SLP232 T10221039
KLAN 140335Z 1404/1424 11004KT 4SM -RA BR OVC015 
     FM140600 13004KT 2SM RA BR OVC004 
     FM141500 VRB03KT 3SM BR BKN006 
     FM141800 34004KT P6SM SCT015
       
KOZW 140335Z AUTO 13006KT 5SM BR SCT060 OVC100 00/M01 A3016 RMK AO2 T00011013
KOZW 140315Z AUTO 12006KT 5SM BR OVC100 00/M01 A3016 RMK AO2 T00011014
KOZW 140255Z AUTO 12005KT 5SM BR OVC100 00/M01 A3017 RMK AO2 T00001015
KOZW 140235Z AUTO 13005KT 5SM BR BKN100 00/M02 A3017 RMK AO2 T10011016
KOZW 140215Z AUTO 12004KT 5SM BR SCT100 00/M02 A3018 RMK AO2 T10051022
KOZW 140155Z AUTO 13004KT 5SM BR BKN100 M01/M02 A3019 RMK AO2 T10061022
KOZW 140135Z AUTO 14005KT 5SM BR SCT100 M01/M03 A3019 RMK AO2 T10121028
KOZW 140115Z AUTO 13003KT 5SM BR CLR M01/M02 A3018 RMK AO2 T10061025
KOZW 140055Z AUTO 10003KT 5SM BR CLR M01/M02 A3017 RMK AO2 T10071025
KYIP 140253Z 04004KT 3SM HZ FEW026 BKN060 BKN085 00/M03 A3019 RMK AO2 SLP229 T00001028 58003
KYIP 140153Z 00000KT 4SM HZ FEW018 FEW095 01/M02 A3020 RMK AO2 SLP233 T00061022
KYIP 140053Z 00000KT 5SM HZ CLR 01/M02 A3020 RMK AO2 SLP233 T00061022
KYIP 140306Z 1403/1424 07005KT 4SM BR SCT045 OVC080 
     TEMPO 1404/1406 4SM -RA BR OVC025 
     FM140600 14005KT 4SM -RA BR OVC015 
     TEMPO 1410/1414 2SM -RA BR OVC007 
     FM141400 VRB03KT 4SM BR OVC015 
     FM142000 26005KT P6SM BKN025 OVC040
       
KTTF 140335Z AUTO 10004KT 4SM BR BKN036 OVC042 02/02 A3017 RMK AO2 T00210016
KTTF 140315Z AUTO 10004KT 4SM BR BKN037 OVC050 02/02 A3017 RMK AO2 T00200015
KTTF 140255Z AUTO 11004KT 5SM -RA BKN044 BKN050 OVC070 02/01 A3018 RMK AO2 T00170012
KTTF 140235Z AUTO 11005KT 4SM BR SCT046 BKN070 OVC095 01/01 A3018 RMK AO2 T00120007
KTTF 140215Z AUTO 10004KT 4SM BR SCT070 BKN095 00/00 A3019 RMK AO2 T00040000
KTTF 140155Z AUTO 10004KT 4SM BR CLR 00/00 A3019 RMK AO2 T00001005
KTTF 140135Z AUTO 11004KT 4SM BR CLR 00/00 A3020 RMK AO2 T00001005
KTTF 140115Z AUTO 09003KT 5SM BR SCT100 00/00 A3020 RMK AO2 T00001002
KTTF 140055Z AUTO 11004KT 5SM BR CLR 00/00 A3020 RMK AO2 T00011002
KONZ 140335Z AUTO 10003KT 5SM -DZ BKN047 BKN055 OVC065 01/00 A3018 RMK AO2 T00130001
KONZ 140315Z AUTO 10004KT 4SM BR SCT047 OVC065 01/00 A3019 RMK AO2 T00061001
KONZ 140255Z AUTO 10003KT 4SM BR BKN065 BKN100 00/M01 A3019 RMK AO2 T10011010
KONZ 140235Z AUTO 10003KT 5SM BR BKN090 00/M01 A3019 RMK AO2 T10011011
KONZ 140215Z AUTO 11003KT 5SM BR CLR 00/M01 A3020 RMK AO2 T10031015
KONZ 140155Z AUTO 10003KT 5SM BR CLR 00/M02 A3020 RMK AO2 T10051020
KONZ 140135Z AUTO 00000KT 5SM BR CLR 00/M01 A3021 RMK AO2 T00001015
KONZ 140115Z AUTO 10003KT 7SM CLR 00/M01 A3020 RMK AO2 T00011015
KONZ 140055Z AUTO 13005KT 7SM CLR 01/M01 A3021 RMK AO2 T00051012
KDET 140253Z AUTO 00000KT 4SM BR CLR M01/M02 A3021 RMK AO2 SLP236 T10061022 50000 TSNO
KDET 140153Z 13004KT 5SM HZ CLR 00/M03 A3022 RMK AO2 SLP238 T00001028
KDET 140053Z 15004KT 6SM HZ CLR 00/M03 A3022 RMK AO2 SLP239 T00001028
KDET 140305Z 1403/1424 07005KT 4SM BR SCT045 OVC080 
     TEMPO 1404/1406 4SM -RA BR OVC025 
     FM140600 14005KT 4SM -RA BR OVC015 
     TEMPO 1410/1414 2SM -RA BR OVC007 
     FM141400 VRB03KT 4SM BR OVC015 
     FM142000 26005KT P6SM BKN025 OVC040
       
KTOL 140300Z 11003KT 6SM BR BKN023 OVC035 03/01 A3017 RMK AO2 T00330011
KTOL 140252Z 10004KT 6SM HZ SCT021 OVC035 03/01 A3017 RMK AO2 RAE21 SLP221 P0000 60002 T00330006 58006
KTOL 140152Z 09003KT 7SM -RA FEW025 BKN070 OVC090 03/00 A3018 RMK AO2 RAB13 SLP227 P0002 T00280000
KTOL 140052Z 10003KT 8SM BKN085 02/M02 A3019 RMK AO2 SLP229 T00221017
KTOL 140240Z 1403/1424 10005KT P6SM VCSH BKN050 
     TEMPO 1403/1406 6SM -RA 
     FM140600 13005KT P6SM VCSH OVC035 
     FM141200 VRB04KT P6SM OVC050
       
KGRR 140253Z 08004KT 5SM HZ BKN070 OVC085 01/M02 A3014 RMK AO2 SLP215 T00111017 58004
KGRR 140153Z 07004KT 4SM BR BKN080 BKN100 BKN230 00/M02 A3015 RMK AO2 SLP219 T00001022
KGRR 140053Z 07003KT 5SM BR BKN080 BKN230 00/M02 A3016 RMK AO2 SLP223 T00001022
KGRR 140336Z 1404/1424 10004KT 4SM -RA BR OVC035 
     FM140600 11004KT 2SM RA BR OVC004 
     FM141300 07004KT 3SM BR OVC008 
     FM141500 05004KT 6SM BR BKN015 
     FM141800 29005KT P6SM SCT015